Time;durP1;ratioP1;P1;durP2;ratioP2;P2;SDS_P1;SDS_P2;PMS_P1;PMS_P2;Temp;Humidity;BMP_temperature;BMP_pressure;BME280_temperature;BME280_humidity;BME280_pressure;Samples;Min_cycle;Max_cycle;Signal;HPM_P1;HPM_P2
2022/09/09 00:00:54;;;;;;;6.40;2.00;;;;;;;;;;5038258;28;20290;-55
2022/09/09 00:03:26;;;;;;;4.38;2.13;;;;;;;;;;5033952;28;20291;-54
2022/09/09 00:06:07;;;;;;;4.13;2.00;;;;;;;;;;5037536;28;20674;-54
2022/09/09 00:08:55;;;;;;;3.03;1.90;;;;;;;;;;5034375;28;20298;-54
2022/09/09 00:11:27;;;;;;;5.40;2.05;;;;;;;;;;5039439;28;20826;-53
2022/09/09 00:13:59;;;;;;;5.07;2.13;;;;;;;;;;5051105;28;20206;-54
2022/09/09 00:16:31;;;;;;;4.25;2.05;;;;;;;;;;5026501;28;20287;-54
2022/09/09 00:19:04;;;;;;;4.90;1.90;;;;;;;;;;5035418;28;20306;-53
2022/09/09 00:21:36;;;;;;;7.07;3.25;;;;;;;;;;5033445;28;20329;-54
2022/09/09 00:24:27;;;;;;;4.80;2.80;;;;;;;;;;5031224;28;20231;-56
2022/09/09 00:27:01;;;;;;;5.37;2.80;;;;;;;;;;5024850;28;20196;-54
2022/09/09 00:29:43;;;;;;;3.92;2.25;;;;;;;;;;5034161;28;20297;-53
2022/09/09 00:32:18;;;;;;;3.90;2.33;;;;;;;;;;5029061;28;20278;-56
2022/09/09 00:34:51;;;;;;;4.32;2.15;;;;;;;;;;5044735;28;20285;-52
2022/09/09 00:37:19;;;;;;;7.03;1.90;;;;;;;;;;5047188;28;20286;-54
2022/09/09 00:39:51;;;;;;;5.72;1.85;;;;;;;;;;5044771;28;20279;-55
2022/09/09 00:42:38;;;;;;;3.73;2.13;;;;;;;;;;5043021;28;20242;-54
2022/09/09 00:45:14;;;;;;;5.93;2.15;;;;;;;;;;5030930;28;20734;-52
2022/09/09 00:47:44;;;;;;;3.70;2.25;;;;;;;;;;5028541;28;20294;-55
2022/09/09 00:50:24;;;;;;;2.22;1.63;;;;;;;;;;5036534;28;20231;-56
2022/09/09 00:53:10;;;;;;;4.15;1.77;;;;;;;;;;5033596;28;20641;-55
2022/09/09 00:55:45;;;;;;;3.30;2.33;;;;;;;;;;5043907;28;20280;-54
2022/09/09 00:58:12;;;;;;;3.10;1.83;;;;;;;;;;5026043;28;20302;-55
2022/09/09 01:00:48;;;;;;;6.65;2.75;;;;;;;;;;5026200;28;20195;-56
2022/09/09 01:03:33;;;;;;;4.47;1.80;;;;;;;;;;5039404;28;20192;-54
2022/09/09 01:06:15;;;;;;;2.67;1.90;;;;;;;;;;5030781;28;20206;-55
2022/09/09 01:09:03;;;;;;;2.95;1.80;;;;;;;;;;5028480;28;20239;-53
2022/09/09 01:11:34;;;;;;;3.47;1.60;;;;;;;;;;5030558;28;20285;-54
2022/09/09 01:14:14;;;;;;;5.15;1.80;;;;;;;;;;5033325;28;20279;-56
2022/09/09 01:16:41;;;;;;;2.97;1.70;;;;;;;;;;5029799;28;20287;-53
2022/09/09 01:19:10;;;;;;;3.13;1.70;;;;;;;;;;5045894;28;20234;-55
2022/09/09 01:21:46;;;;;;;2.40;1.63;;;;;;;;;;5029030;28;20287;-54
2022/09/09 01:24:26;;;;;;;3.37;1.80;;;;;;;;;;5027468;28;20229;-55
2022/09/09 01:26:57;;;;;;;2.73;1.70;;;;;;;;;;5026533;28;20287;-56
2022/09/09 01:29:23;;;;;;;2.92;1.65;;;;;;;;;;5029190;28;20303;-56
2022/09/09 01:31:55;;;;;;;4.33;1.90;;;;;;;;;;5040581;28;20249;-53
2022/09/09 01:34:24;;;;;;;3.72;1.70;;;;;;;;;;5035522;28;21054;-51
2022/09/09 01:37:06;;;;;;;2.85;1.67;;;;;;;;;;5031809;28;20245;-56
2022/09/09 01:39:34;;;;;;;3.17;1.90;;;;;;;;;;5027461;28;20241;-58
2022/09/09 01:42:01;;;;;;;3.03;1.77;;;;;;;;;;5023808;28;20191;-57
2022/09/09 01:44:28;;;;;;;3.30;1.60;;;;;;;;;;5026880;28;20227;-54
2022/09/09 01:46:54;;;;;;;3.55;1.60;;;;;;;;;;5026358;28;20282;-53
2022/09/09 01:49:21;;;;;;;3.97;1.77;;;;;;;;;;5022129;28;20322;-54
2022/09/09 01:51:53;;;;;;;4.03;1.80;;;;;;;;;;5027213;28;20278;-53
2022/09/09 01:54:20;;;;;;;4.43;1.60;;;;;;;;;;5023284;28;20199;-54
2022/09/09 01:56:58;;;;;;;3.80;1.80;;;;;;;;;;5025253;28;20747;-54
2022/09/09 01:59:31;;;;;;;3.20;1.67;;;;;;;;;;5029426;28;20254;-52
2022/09/09 02:02:01;;;;;;;1.53;1.40;;;;;;;;;;5029118;28;20306;-54
2022/09/09 02:04:36;;;;;;;3.97;1.70;;;;;;;;;;5021938;28;20245;-54
2022/09/09 02:07:02;;;;;;;2.70;1.40;;;;;;;;;;5023043;28;20286;-52
2022/09/09 02:09:30;;;;;;;3.97;1.40;;;;;;;;;;5028285;28;20310;-55
2022/09/09 02:12:03;;;;;;;5.47;1.77;;;;;;;;;;5023617;28;20290;-54
2022/09/09 02:14:40;;;;;;;1.73;1.50;;;;;;;;;;5041588;28;20658;-55
2022/09/09 02:17:11;;;;;;;3.97;1.50;;;;;;;;;;5041773;28;20234;-56
2022/09/09 02:19:42;;;;;;;4.40;1.70;;;;;;;;;;5027810;28;20327;-55
2022/09/09 02:22:09;;;;;;;2.70;1.33;;;;;;;;;;5043458;28;20205;-54
2022/09/09 02:24:39;;;;;;;2.70;1.60;;;;;;;;;;5029027;28;20234;-57
2022/09/09 02:27:08;;;;;;;2.13;1.20;;;;;;;;;;5028437;28;20675;-54
2022/09/09 02:29:41;;;;;;;4.57;1.40;;;;;;;;;;5026522;28;20211;-56
2022/09/09 02:32:20;;;;;;;2.13;1.20;;;;;;;;;;5024982;28;20637;-56
2022/09/09 02:34:54;;;;;;;2.70;1.20;;;;;;;;;;5043721;28;20635;-55
2022/09/09 02:37:22;;;;;;;10.43;1.50;;;;;;;;;;5045611;28;20633;-54
2022/09/09 02:39:48;;;;;;;2.08;1.20;;;;;;;;;;5032363;28;20313;-55
2022/09/09 02:42:15;;;;;;;2.47;1.33;;;;;;;;;;5027612;28;20294;-52
2022/09/09 02:44:41;;;;;;;3.05;1.35;;;;;;;;;;5033538;28;20746;-54
2022/09/09 02:47:34;;;;;;;6.15;1.60;;;;;;;;;;5030299;28;20315;-54
2022/09/09 02:50:14;;;;;;;4.25;1.27;;;;;;;;;;5029073;28;20675;-56
2022/09/09 02:53:07;;;;;;;6.83;1.57;;;;;;;;;;5031185;28;20290;-55
2022/09/09 02:55:48;;;;;;;2.00;1.33;;;;;;;;;;5030332;28;20287;-54
2022/09/09 02:58:16;;;;;;;2.70;1.50;;;;;;;;;;5027169;28;20223;-56
2022/09/09 03:00:45;;;;;;;2.30;1.25;;;;;;;;;;5031342;28;20195;-55
2022/09/09 03:03:11;;;;;;;2.50;1.30;;;;;;;;;;5026421;28;20200;-57
2022/09/09 03:05:38;;;;;;;3.13;1.20;;;;;;;;;;5028424;28;20209;-53
2022/09/09 03:08:05;;;;;;;2.33;1.08;;;;;;;;;;5032051;28;20310;-54
2022/09/09 03:10:32;;;;;;;2.63;1.20;;;;;;;;;;5032253;28;20303;-55
2022/09/09 03:12:58;;;;;;;2.50;1.23;;;;;;;;;;5029442;28;20290;-53
2022/09/09 03:15:28;;;;;;;4.27;1.37;;;;;;;;;;5029991;28;20295;-56
2022/09/09 03:17:56;;;;;;;7.33;1.50;;;;;;;;;;5030202;28;20298;-54
2022/09/09 03:20:25;;;;;;;1.52;1.10;;;;;;;;;;5031703;28;20250;-50
2022/09/09 03:22:56;;;;;;;2.10;1.38;;;;;;;;;;5028745;28;20201;-51
2022/09/09 03:25:26;;;;;;;2.13;1.08;;;;;;;;;;5032651;28;20766;-54
2022/09/09 03:27:54;;;;;;;3.75;1.10;;;;;;;;;;5029976;28;20248;-51
2022/09/09 03:30:24;;;;;;;2.53;1.17;;;;;;;;;;5029282;28;20677;-50
2022/09/09 03:32:51;;;;;;;2.80;1.38;;;;;;;;;;5025942;28;20679;-50
2022/09/09 03:35:18;;;;;;;3.57;1.30;;;;;;;;;;5030061;28;20715;-50
2022/09/09 03:37:44;;;;;;;4.82;1.33;;;;;;;;;;5026583;28;20211;-53
2022/09/09 03:40:11;;;;;;;3.70;1.13;;;;;;;;;;5028314;28;20327;-54
2022/09/09 03:42:38;;;;;;;3.00;1.40;;;;;;;;;;5029979;28;20245;-54
2022/09/09 03:45:06;;;;;;;3.33;1.30;;;;;;;;;;5033315;28;20291;-58
2022/09/09 03:47:33;;;;;;;3.87;1.20;;;;;;;;;;5030998;28;20202;-56
2022/09/09 03:49:59;;;;;;;1.97;1.20;;;;;;;;;;5027417;28;20676;-54
2022/09/09 03:52:26;;;;;;;1.73;1.30;;;;;;;;;;5032555;28;20290;-57
2022/09/09 03:54:53;;;;;;;2.72;1.40;;;;;;;;;;5032473;28;20290;-54
2022/09/09 03:57:20;;;;;;;3.58;1.30;;;;;;;;;;5027377;28;20291;-52
2022/09/09 03:59:46;;;;;;;3.17;1.40;;;;;;;;;;5026897;28;20770;-53
2022/09/09 04:02:12;;;;;;;2.87;1.60;;;;;;;;;;5029198;28;20192;-54
2022/09/09 04:04:39;;;;;;;6.37;1.40;;;;;;;;;;5028117;28;20202;-54
2022/09/09 04:07:08;;;;;;;2.88;1.33;;;;;;;;;;5030715;28;20282;-59
2022/09/09 04:09:34;;;;;;;3.83;1.43;;;;;;;;;;5031892;28;20299;-55
2022/09/09 04:12:01;;;;;;;3.83;1.47;;;;;;;;;;5024037;28;20287;-52
2022/09/09 04:14:28;;;;;;;3.58;1.40;;;;;;;;;;5025237;28;20647;-54
2022/09/09 04:16:57;;;;;;;3.33;1.50;;;;;;;;;;5029806;28;20738;-54
2022/09/09 04:19:23;;;;;;;4.77;1.87;;;;;;;;;;5028498;28;20223;-56
2022/09/09 04:21:51;;;;;;;3.70;1.50;;;;;;;;;;5026498;28;20266;-54
2022/09/09 04:24:17;;;;;;;5.10;1.40;;;;;;;;;;5026320;28;20299;-53
2022/09/09 04:26:45;;;;;;;3.17;1.47;;;;;;;;;;5026373;28;20294;-55
2022/09/09 04:29:11;;;;;;;2.80;1.40;;;;;;;;;;5030333;28;20302;-53
2022/09/09 04:31:41;;;;;;;2.00;1.33;;;;;;;;;;5028000;28;20726;-54
2022/09/09 04:34:09;;;;;;;6.88;2.05;;;;;;;;;;5027978;28;20214;-54
2022/09/09 04:36:36;;;;;;;4.17;1.73;;;;;;;;;;5028222;28;20279;-54
2022/09/09 04:39:02;;;;;;;3.27;1.60;;;;;;;;;;5026016;28;20303;-55
2022/09/09 04:41:29;;;;;;;3.50;1.30;;;;;;;;;;5025747;28;20298;-54
2022/09/09 04:43:56;;;;;;;4.73;2.07;;;;;;;;;;5031491;28;20291;-55
2022/09/09 04:46:23;;;;;;;4.13;1.40;;;;;;;;;;5030428;28;20283;-53
2022/09/09 04:48:50;;;;;;;2.35;1.23;;;;;;;;;;5025799;28;20342;-53
2022/09/09 04:51:16;;;;;;;2.10;1.33;;;;;;;;;;5024472;28;20283;-54
2022/09/09 04:53:43;;;;;;;2.70;1.20;;;;;;;;;;5030997;28;20287;-56
2022/09/09 04:56:12;;;;;;;2.97;1.40;;;;;;;;;;5030610;28;20298;-53
2022/09/09 04:58:39;;;;;;;2.78;1.13;;;;;;;;;;5027624;28;20323;-55
2022/09/09 05:01:07;;;;;;;3.07;1.73;;;;;;;;;;5029134;28;20287;-54
2022/09/09 05:03:34;;;;;;;2.23;1.10;;;;;;;;;;5024596;28;20204;-54
2022/09/09 05:06:20;;;;;;;2.17;1.20;;;;;;;;;;5031776;28;20279;-55
2022/09/09 05:08:47;;;;;;;3.73;1.30;;;;;;;;;;5023961;28;20731;-54
2022/09/09 05:11:25;;;;;;;4.27;1.50;;;;;;;;;;5028185;28;20234;-56
2022/09/09 05:13:52;;;;;;;1.97;1.27;;;;;;;;;;5026165;28;20265;-53
2022/09/09 05:16:20;;;;;;;2.07;1.17;;;;;;;;;;5025790;28;20296;-54
2022/09/09 05:18:46;;;;;;;3.27;1.40;;;;;;;;;;5029374;28;20222;-54
2022/09/09 05:21:14;;;;;;;3.57;1.47;;;;;;;;;;5029514;28;20195;-54
2022/09/09 05:23:40;;;;;;;5.00;1.33;;;;;;;;;;5026789;28;20266;-54
2022/09/09 05:26:11;;;;;;;2.20;1.10;;;;;;;;;;5027672;28;20282;-54
2022/09/09 05:28:42;;;;;;;1.60;1.00;;;;;;;;;;5026902;28;20230;-53
2022/09/09 05:31:11;;;;;;;2.63;0.93;;;;;;;;;;5027986;28;20632;-53
2022/09/09 05:33:40;;;;;;;4.10;1.10;;;;;;;;;;5025530;28;20234;-54
2022/09/09 05:36:08;;;;;;;4.10;1.10;;;;;;;;;;5028934;28;20253;-53
2022/09/09 05:38:35;;;;;;;3.20;1.20;;;;;;;;;;5026132;28;20303;-54
2022/09/09 05:41:02;;;;;;;6.47;1.25;;;;;;;;;;5016885;28;20195;-53
2022/09/09 05:43:29;;;;;;;2.43;1.03;;;;;;;;;;5027006;28;20290;-55
2022/09/09 05:46:01;;;;;;;2.67;1.10;;;;;;;;;;5030003;28;20624;-52
2022/09/09 05:48:29;;;;;;;4.37;1.43;;;;;;;;;;5023865;28;20307;-51
2022/09/09 05:50:55;;;;;;;4.03;1.23;;;;;;;;;;5029046;28;20199;-54
2022/09/09 05:53:22;;;;;;;4.83;1.40;;;;;;;;;;5029504;28;20294;-52
2022/09/09 05:55:48;;;;;;;3.57;1.20;;;;;;;;;;5027525;28;20200;-53
2022/09/09 05:58:16;;;;;;;3.03;1.37;;;;;;;;;;5025866;28;20307;-54
2022/09/09 06:00:44;;;;;;;3.78;1.25;;;;;;;;;;5028713;28;20771;-55
2022/09/09 06:03:11;;;;;;;3.43;1.60;;;;;;;;;;5027698;28;20288;-50
2022/09/09 06:05:38;;;;;;;3.40;1.40;;;;;;;;;;5028205;28;20863;-53
2022/09/09 06:08:04;;;;;;;2.67;1.43;;;;;;;;;;5024387;28;20310;-53
2022/09/09 06:10:30;;;;;;;3.20;1.40;;;;;;;;;;5025994;28;20238;-51
2022/09/09 06:12:57;;;;;;;6.45;1.45;;;;;;;;;;5028617;28;20283;-53
2022/09/09 06:15:23;;;;;;;3.70;1.10;;;;;;;;;;5028912;28;20298;-58
2022/09/09 06:17:54;;;;;;;2.43;1.20;;;;;;;;;;5026861;28;20306;-54
2022/09/09 06:20:21;;;;;;;2.35;1.15;;;;;;;;;;5029692;28;20314;-54
2022/09/09 06:22:48;;;;;;;3.13;1.02;;;;;;;;;;5025217;28;20286;-54
2022/09/09 06:25:14;;;;;;;3.83;1.50;;;;;;;;;;5027625;28;20223;-56
2022/09/09 06:27:41;;;;;;;3.33;1.50;;;;;;;;;;5028186;28;20306;-55
2022/09/09 06:30:09;;;;;;;3.00;1.15;;;;;;;;;;5023759;28;20283;-53
2022/09/09 06:32:37;;;;;;;2.40;1.13;;;;;;;;;;5022423;28;20295;-54
2022/09/09 06:35:04;;;;;;;3.17;1.30;;;;;;;;;;5027982;28;21733;-52
2022/09/09 06:37:30;;;;;;;5.18;1.40;;;;;;;;;;5025330;28;20286;-51
2022/09/09 06:39:57;;;;;;;2.70;1.17;;;;;;;;;;5027542;28;20780;-51
2022/09/09 06:42:23;;;;;;;2.47;1.30;;;;;;;;;;5021429;28;20203;-55
2022/09/09 06:44:50;;;;;;;2.17;1.27;;;;;;;;;;5028026;28;20282;-55
2022/09/09 06:47:16;;;;;;;3.42;1.00;;;;;;;;;;5028337;28;20747;-55
2022/09/09 06:49:43;;;;;;;3.75;1.45;;;;;;;;;;5022764;28;20960;-55
2022/09/09 06:52:13;;;;;;;3.72;1.15;;;;;;;;;;5023285;28;20209;-54
2022/09/09 06:54:40;;;;;;;2.50;1.23;;;;;;;;;;5027022;28;20291;-54
2022/09/09 06:57:07;;;;;;;3.25;1.00;;;;;;;;;;5029527;28;20191;-57
2022/09/09 06:59:53;;;;;;;1.27;0.90;;;;;;;;;;5027117;28;20218;-55
2022/09/09 07:02:19;;;;;;;2.80;1.20;;;;;;;;;;5025564;28;20287;-54
2022/09/09 07:04:46;;;;;;;7.03;1.30;;;;;;;;;;5027938;28;20204;-54
2022/09/09 07:07:15;;;;;;;3.92;1.50;;;;;;;;;;5027880;28;20512;-56
2022/09/09 07:09:41;;;;;;;4.28;1.30;;;;;;;;;;5020713;28;21082;-54
2022/09/09 07:12:07;;;;;;;3.20;1.50;;;;;;;;;;5023704;28;20865;-55
2022/09/09 07:14:36;;;;;;;5.35;1.48;;;;;;;;;;5020611;28;20283;-57
2022/09/09 07:17:02;;;;;;;6.82;1.63;;;;;;;;;;5029136;28;20746;-52
2022/09/09 07:19:28;;;;;;;2.50;1.27;;;;;;;;;;5024629;28;20219;-58
2022/09/09 07:21:54;;;;;;;6.47;1.67;;;;;;;;;;5026863;28;20294;-55
2022/09/09 07:24:21;;;;;;;4.72;1.20;;;;;;;;;;5031788;28;20290;-55
2022/09/09 07:26:47;;;;;;;5.72;1.20;;;;;;;;;;5030087;28;20223;-51
2022/09/09 07:29:14;;;;;;;7.05;1.65;;;;;;;;;;5031546;28;20310;-56
2022/09/09 07:31:45;;;;;;;4.13;1.65;;;;;;;;;;5026029;28;20200;-55
2022/09/09 07:34:12;;;;;;;3.28;1.27;;;;;;;;;;5032004;28;20804;-57
2022/09/09 07:36:39;;;;;;;4.20;1.65;;;;;;;;;;5029346;28;20316;-57
2022/09/09 07:39:08;;;;;;;5.97;1.90;;;;;;;;;;5031007;28;20246;-54
2022/09/09 07:41:43;;;;;;;4.38;1.60;;;;;;;;;;5031106;28;20286;-55
2022/09/09 07:44:12;;;;;;;7.90;1.80;;;;;;;;;;5016998;28;20314;-55
2022/09/09 07:46:39;;;;;;;3.45;2.13;;;;;;;;;;5032117;28;20302;-57
2022/09/09 07:49:06;;;;;;;4.88;1.70;;;;;;;;;;5029527;28;20230;-56
2022/09/09 07:51:34;;;;;;;6.18;2.03;;;;;;;;;;5028599;28;20467;-54
2022/09/09 07:54:06;;;;;;;4.95;2.22;;;;;;;;;;5023726;28;20278;-56
2022/09/09 07:56:33;;;;;;;5.13;2.08;;;;;;;;;;5028704;28;20286;-53
2022/09/09 07:58:59;;;;;;;5.60;2.40;;;;;;;;;;5028819;28;20306;-56
2022/09/09 08:01:29;;;;;;;5.15;1.90;;;;;;;;;;5024495;28;20310;-54
2022/09/09 08:04:01;;;;;;;3.33;1.90;;;;;;;;;;5030123;28;20207;-55
2022/09/09 08:06:30;;;;;;;4.35;2.00;;;;;;;;;;5043135;28;20211;-55
2022/09/09 08:08:56;;;;;;;2.95;1.80;;;;;;;;;;5029045;28;20299;-57
2022/09/09 08:11:24;;;;;;;3.92;1.98;;;;;;;;;;5022529;28;20751;-56
2022/09/09 08:13:51;;;;;;;6.25;2.22;;;;;;;;;;5029066;28;20235;-57
2022/09/09 08:16:23;;;;;;;3.92;2.13;;;;;;;;;;5028647;28;20203;-57
2022/09/09 08:18:51;;;;;;;6.47;2.50;;;;;;;;;;5023182;28;20303;-55
2022/09/09 08:21:28;;;;;;;5.38;2.22;;;;;;;;;;5030297;28;20223;-57
2022/09/09 08:23:56;;;;;;;5.05;2.15;;;;;;;;;;5029757;28;20318;-56
2022/09/09 08:26:26;;;;;;;4.18;2.20;;;;;;;;;;5030955;28;20200;-58
2022/09/09 08:28:54;;;;;;;4.32;2.10;;;;;;;;;;5022759;28;20302;-53
2022/09/09 08:31:23;;;;;;;4.47;2.30;;;;;;;;;;5028588;28;20731;-55
2022/09/09 08:33:56;;;;;;;6.47;2.35;;;;;;;;;;5025807;28;20206;-57
2022/09/09 08:36:25;;;;;;;4.63;2.45;;;;;;;;;;5028550;28;20291;-57
2022/09/09 08:38:54;;;;;;;4.25;2.13;;;;;;;;;;5029614;28;20255;-54
2022/09/09 08:41:37;;;;;;;4.50;2.10;;;;;;;;;;5028693;28;20310;-55
2022/09/09 08:44:14;;;;;;;3.75;1.92;;;;;;;;;;5024810;28;20286;-58
2022/09/09 08:46:57;;;;;;;3.70;2.10;;;;;;;;;;5022694;28;20289;-57
2022/09/09 08:49:45;;;;;;;4.38;2.47;;;;;;;;;;5027877;28;20254;-57
2022/09/09 08:52:22;;;;;;;3.72;2.65;;;;;;;;;;5030072;28;20204;-57
2022/09/09 08:54:49;;;;;;;3.63;2.17;;;;;;;;;;5039836;28;20726;-57
2022/09/09 08:57:26;;;;;;;4.07;1.90;;;;;;;;;;5017780;28;20243;-55
2022/09/09 08:59:55;;;;;;;6.28;2.55;;;;;;;;;;5021046;28;20247;-57
2022/09/09 09:02:26;;;;;;;4.60;2.35;;;;;;;;;;5045715;28;20251;-56
2022/09/09 09:05:00;;;;;;;3.80;2.30;;;;;;;;;;5036064;28;20290;-56
2022/09/09 09:07:53;;;;;;;5.35;2.40;;;;;;;;;;5043810;28;20199;-54
2022/09/09 09:10:48;;;;;;;3.53;2.00;;;;;;;;;;5040836;28;20299;-52
2022/09/09 09:13:18;;;;;;;4.47;1.90;;;;;;;;;;5036105;28;20197;-51
2022/09/09 09:15:48;;;;;;;5.25;2.20;;;;;;;;;;5027534;28;20231;-52
2022/09/09 09:18:16;;;;;;;3.35;1.70;;;;;;;;;;5028128;28;20273;-51
2022/09/09 09:20:51;;;;;;;4.25;1.70;;;;;;;;;;5024053;28;20223;-51
2022/09/09 09:23:24;;;;;;;4.80;1.58;;;;;;;;;;5031122;28;20544;-53
2022/09/09 09:25:57;;;;;;;3.85;1.50;;;;;;;;;;5025750;28;20280;-51
2022/09/09 09:28:25;;;;;;;2.60;1.30;;;;;;;;;;5025814;28;20251;-53
2022/09/09 09:31:01;;;;;;;3.78;1.55;;;;;;;;;;5024976;28;20279;-54
2022/09/09 09:33:35;;;;;;;3.05;1.45;;;;;;;;;;5026020;28;20644;-54
2022/09/09 09:36:03;;;;;;;2.78;1.42;;;;;;;;;;5024863;28;20682;-51
2022/09/09 09:38:29;;;;;;;2.35;1.30;;;;;;;;;;5022277;28;20331;-51
2022/09/09 09:41:18;;;;;;;4.07;1.80;;;;;;;;;;5018511;28;20224;-52
2022/09/09 09:43:53;;;;;;;3.33;1.70;;;;;;;;;;5025687;28;20750;-51
2022/09/09 09:46:23;;;;;;;2.58;1.60;;;;;;;;;;5023508;28;20647;-52
2022/09/09 09:49:05;;;;;;;2.20;1.60;;;;;;;;;;5023503;28;20239;-55
2022/09/09 09:51:32;;;;;;;3.25;1.80;;;;;;;;;;5024904;28;20282;-54
2022/09/09 09:54:15;;;;;;;6.32;1.67;;;;;;;;;;5026917;28;20195;-54
2022/09/09 09:56:43;;;;;;;4.85;1.80;;;;;;;;;;5023391;28;20234;-50
2022/09/09 09:59:23;;;;;;;4.43;2.33;;;;;;;;;;5018142;28;20238;-54
2022/09/09 10:02:26;;;;;;;4.05;1.58;;;;;;;;;;5027047;28;20304;-54
2022/09/09 10:05:05;;;;;;;3.25;1.48;;;;;;;;;;5023253;28;20211;-53
2022/09/09 10:07:33;;;;;;;5.55;1.67;;;;;;;;;;5024803;28;20600;-54
2022/09/09 10:09:59;;;;;;;4.22;2.25;;;;;;;;;;5028026;28;20215;-55
2022/09/09 10:12:28;;;;;;;3.97;1.90;;;;;;;;;;5023561;28;20250;-54
2022/09/09 10:15:15;;;;;;;2.85;1.85;;;;;;;;;;5023563;28;20204;-56
2022/09/09 10:18:01;;;;;;;2.35;1.67;;;;;;;;;;5040778;28;20710;-53
2022/09/09 10:20:45;;;;;;;3.20;1.42;;;;;;;;;;5021171;28;20302;-55
2022/09/09 10:23:25;;;;;;;5.18;1.90;;;;;;;;;;5025956;28;20199;-55
2022/09/09 10:25:55;;;;;;;2.90;1.55;;;;;;;;;;5025879;28;20282;-56
2022/09/09 10:28:58;;;;;;;3.25;1.50;;;;;;;;;;5023425;28;20258;-57
2022/09/09 10:31:39;;;;;;;2.88;1.55;;;;;;;;;;5015870;28;20199;-55
2022/09/09 10:34:11;;;;;;;2.88;1.50;;;;;;;;;;5015623;28;20287;-58
2022/09/09 10:36:42;;;;;;;5.15;1.60;;;;;;;;;;5028676;28;20569;-56
2022/09/09 10:39:21;;;;;;;4.45;1.60;;;;;;;;;;5012667;28;20242;-55
2022/09/09 10:42:09;;;;;;;5.35;1.40;;;;;;;;;;5028113;28;20243;-56
2022/09/09 10:44:54;;;;;;;3.65;1.55;;;;;;;;;;5027637;28;20283;-56
2022/09/09 10:47:35;;;;;;;2.38;1.20;;;;;;;;;;5022023;28;20648;-56
2022/09/09 10:50:26;;;;;;;3.60;1.08;;;;;;;;;;5026200;28;20285;-56
2022/09/09 10:54:00;;;;;;;2.63;1.02;;;;;;;;;;5039201;28;20235;-55
2022/09/09 10:56:26;;;;;;;3.72;1.00;;;;;;;;;;4950468;28;20308;-58
2022/09/09 10:59:05;;;;;;;7.70;1.00;;;;;;;;;;5022113;28;20330;-57
2022/09/09 11:01:44;;;;;;;2.50;1.02;;;;;;;;;;5027903;28;20309;-54
2022/09/09 11:04:19;;;;;;;3.05;1.00;;;;;;;;;;5041057;28;20233;-57
2022/09/09 11:06:48;;;;;;;2.38;0.98;;;;;;;;;;5018366;28;20743;-56
2022/09/09 11:09:20;;;;;;;3.42;1.27;;;;;;;;;;5030555;28;20220;-57
2022/09/09 11:11:54;;;;;;;2.00;0.98;;;;;;;;;;5045614;28;20280;-55
2022/09/09 11:14:40;;;;;;;3.03;0.90;;;;;;;;;;5028528;28;20282;-55
2022/09/09 11:17:11;;;;;;;2.58;0.93;;;;;;;;;;5045441;28;20290;-53
2022/09/09 11:19:40;;;;;;;2.38;1.08;;;;;;;;;;5028985;28;20306;-52
2022/09/09 11:22:25;;;;;;;4.00;0.95;;;;;;;;;;5028077;28;20635;-55
2022/09/09 11:25:04;;;;;;;3.38;0.90;;;;;;;;;;5018932;28;20760;-54
2022/09/09 11:27:50;;;;;;;2.10;0.90;;;;;;;;;;5027453;28;20285;-54
2022/09/09 11:30:21;;;;;;;2.63;1.10;;;;;;;;;;5030888;28;20286;-52
2022/09/09 11:33:43;;;;;;;1.75;1.08;;;;;;;;;;5030790;28;20203;-51
2022/09/09 11:36:28;;;;;;;2.38;1.00;;;;;;;;;;5020874;28;20187;-53
2022/09/09 11:39:31;;;;;;;1.20;0.75;;;;;;;;;;5032179;28;20743;-55
2022/09/09 11:42:13;;;;;;;2.35;0.93;;;;;;;;;;5028019;28;20299;-53
2022/09/09 11:44:40;;;;;;;2.33;0.98;;;;;;;;;;5031645;28;20650;-55
2022/09/09 11:47:36;;;;;;;4.35;0.90;;;;;;;;;;5025901;28;20223;-55
2022/09/09 11:50:14;;;;;;;3.08;1.10;;;;;;;;;;5025754;28;20295;-53
2022/09/09 11:52:45;;;;;;;2.65;0.88;;;;;;;;;;5029943;28;20640;-51
2022/09/09 11:55:36;;;;;;;1.83;1.10;;;;;;;;;;5024057;28;20269;-51
2022/09/09 11:58:16;;;;;;;5.68;1.17;;;;;;;;;;5030809;28;20257;-52
2022/09/09 12:00:48;;;;;;;2.47;1.10;;;;;;;;;;5043840;28;20304;-53
2022/09/09 12:03:45;;;;;;;2.00;0.95;;;;;;;;;;5022063;28;20204;-55
2022/09/09 12:06:18;;;;;;;3.55;1.13;;;;;;;;;;5025737;28;20613;-58
2022/09/09 12:08:47;;;;;;;3.00;1.00;;;;;;;;;;5028566;28;20899;-56
2022/09/09 12:11:26;;;;;;;2.78;0.80;;;;;;;;;;5030665;28;20638;-53
2022/09/09 12:13:55;;;;;;;3.80;1.52;;;;;;;;;;5024774;28;20307;-54
2022/09/09 12:16:30;;;;;;;3.78;1.20;;;;;;;;;;5024634;28;20286;-52
2022/09/09 12:19:23;;;;;;;5.40;1.10;;;;;;;;;;5031316;28;20215;-55
2022/09/09 12:22:05;;;;;;;2.20;1.13;;;;;;;;;;5027577;28;20273;-57
2022/09/09 12:24:59;;;;;;;3.08;1.08;;;;;;;;;;5028997;28;20679;-56
2022/09/09 12:27:36;;;;;;;3.05;1.10;;;;;;;;;;5026709;28;20286;-53
2022/09/09 12:30:15;;;;;;;1.75;1.10;;;;;;;;;;5027104;28;20282;-55
2022/09/09 12:32:44;;;;;;;3.67;1.10;;;;;;;;;;5045121;28;22601;-57
2022/09/09 12:35:14;;;;;;;2.35;0.90;;;;;;;;;;5031161;28;20239;-55
2022/09/09 12:37:50;;;;;;;3.90;1.00;;;;;;;;;;5028589;28;20311;-51
2022/09/09 12:40:25;;;;;;;2.10;0.98;;;;;;;;;;5022805;28;20722;-54
2022/09/09 12:42:52;;;;;;;4.45;1.00;;;;;;;;;;5028020;28;20279;-55
2022/09/09 12:45:26;;;;;;;4.25;1.00;;;;;;;;;;5029491;28;20286;-54
2022/09/09 12:47:57;;;;;;;1.08;0.55;;;;;;;;;;5029640;28;20799;-55
2022/09/09 12:50:29;;;;;;;2.00;0.73;;;;;;;;;;5025614;28;20287;-56
2022/09/09 12:53:04;;;;;;;2.75;0.80;;;;;;;;;;5040694;28;20286;-55
2022/09/09 12:55:33;;;;;;;2.63;0.60;;;;;;;;;;5026751;28;20671;-57
2022/09/09 12:58:04;;;;;;;2.53;0.98;;;;;;;;;;5025736;28;20215;-55
2022/09/09 13:00:31;;;;;;;2.65;0.80;;;;;;;;;;5025870;28;20227;-53
2022/09/09 13:02:59;;;;;;;2.25;0.80;;;;;;;;;;5042217;28;20303;-55
2022/09/09 13:05:35;;;;;;;4.43;0.90;;;;;;;;;;5026480;28;20235;-56
2022/09/09 13:08:02;;;;;;;1.60;0.70;;;;;;;;;;5023218;28;20301;-54
2022/09/09 13:10:33;;;;;;;1.50;0.85;;;;;;;;;;5023195;28;20644;-54
2022/09/09 13:13:23;;;;;;;3.53;0.90;;;;;;;;;;5025853;28;20199;-55
2022/09/09 13:15:51;;;;;;;2.65;0.88;;;;;;;;;;5026145;28;20760;-56
2022/09/09 13:18:21;;;;;;;1.77;0.90;;;;;;;;;;5027007;28;20250;-54
2022/09/09 13:20:48;;;;;;;4.57;0.95;;;;;;;;;;5027821;28;20286;-57
2022/09/09 13:23:16;;;;;;;3.22;0.88;;;;;;;;;;5028361;28;20302;-58
2022/09/09 13:25:56;;;;;;;1.42;0.70;;;;;;;;;;5026745;28;20286;-58
2022/09/09 13:28:24;;;;;;;2.10;0.70;;;;;;;;;;5023230;28;20310;-55
2022/09/09 13:31:01;;;;;;;3.30;0.80;;;;;;;;;;5025655;28;20287;-58
2022/09/09 13:33:39;;;;;;;2.42;0.77;;;;;;;;;;5028962;28;20656;-55
2022/09/09 13:36:10;;;;;;;5.63;2.35;;;;;;;;;;5025154;28;20286;-56
2022/09/09 13:38:39;;;;;;;2.17;1.05;;;;;;;;;;5026460;28;20318;-54
2022/09/09 13:41:07;;;;;;;3.85;0.73;;;;;;;;;;5040639;28;20310;-57
2022/09/09 13:43:42;;;;;;;0.60;0.50;;;;;;;;;;5026364;28;20290;-58
2022/09/09 13:46:30;;;;;;;2.13;0.63;;;;;;;;;;5028054;28;20191;-55
2022/09/09 13:49:01;;;;;;;2.20;0.90;;;;;;;;;;5029271;28;20603;-56
2022/09/09 13:51:37;;;;;;;0.70;0.60;;;;;;;;;;5026721;28;20632;-55
2022/09/09 13:54:09;;;;;;;3.55;0.80;;;;;;;;;;5030911;28;20552;-58
2022/09/09 13:56:36;;;;;;;3.45;0.80;;;;;;;;;;5027295;28;20322;-58
2022/09/09 13:59:05;;;;;;;2.45;0.63;;;;;;;;;;5028030;28;20629;-55
2022/09/09 14:01:32;;;;;;;2.67;0.88;;;;;;;;;;5024375;28;20298;-57
2022/09/09 14:03:59;;;;;;;3.38;0.82;;;;;;;;;;5021269;28;20195;-55
2022/09/09 14:06:25;;;;;;;2.45;0.80;;;;;;;;;;5028872;28;20616;-55
2022/09/09 14:08:52;;;;;;;4.00;0.80;;;;;;;;;;5024601;28;20306;-55
2022/09/09 14:11:19;;;;;;;1.27;0.73;;;;;;;;;;5026609;28;20192;-57
2022/09/09 14:13:45;;;;;;;4.10;0.90;;;;;;;;;;5029842;28;20278;-54
2022/09/09 14:16:11;;;;;;;4.32;0.77;;;;;;;;;;5025905;28;20290;-54
2022/09/09 14:18:38;;;;;;;2.20;0.60;;;;;;;;;;5028060;28;20219;-54
2022/09/09 14:21:05;;;;;;;2.22;0.80;;;;;;;;;;5023469;28;20287;-53
2022/09/09 14:23:32;;;;;;;2.72;0.80;;;;;;;;;;5029737;28;20631;-52
2022/09/09 14:25:58;;;;;;;1.90;0.60;;;;;;;;;;5025560;28;20630;-53
2022/09/09 14:28:25;;;;;;;2.50;0.68;;;;;;;;;;5024233;28;20310;-51
2022/09/09 14:31:13;;;;;;;1.65;0.73;;;;;;;;;;5023113;28;20747;-50
2022/09/09 14:33:40;;;;;;;2.92;1.00;;;;;;;;;;5027211;28;20195;-53
2022/09/09 14:36:06;;;;;;;1.48;0.75;;;;;;;;;;5033077;28;20646;-52
2022/09/09 14:38:34;;;;;;;2.83;1.00;;;;;;;;;;5026681;28;20739;-51
2022/09/09 14:41:04;;;;;;;1.65;0.70;;;;;;;;;;5030250;28;20290;-55
2022/09/09 14:43:32;;;;;;;1.48;0.70;;;;;;;;;;5035018;28;20644;-51
2022/09/09 14:46:06;;;;;;;4.30;0.90;;;;;;;;;;5034066;28;20279;-53
2022/09/09 14:48:33;;;;;;;2.75;0.77;;;;;;;;;;5035133;28;20219;-57
2022/09/09 14:51:08;;;;;;;4.15;0.90;;;;;;;;;;5028512;28;20817;-54
2022/09/09 14:53:34;;;;;;;2.30;0.90;;;;;;;;;;5036065;28;20234;-56
2022/09/09 14:56:09;;;;;;;4.38;0.90;;;;;;;;;;5033600;28;20747;-54
2022/09/09 14:58:37;;;;;;;2.25;0.98;;;;;;;;;;5033212;28;20218;-53
2022/09/09 15:01:05;;;;;;;1.35;0.73;;;;;;;;;;5034173;28;20646;-54
2022/09/09 15:03:32;;;;;;;1.30;1.10;;;;;;;;;;5032932;28;20663;-54
2022/09/09 15:06:08;;;;;;;2.97;0.95;;;;;;;;;;5028668;28;20196;-54
2022/09/09 15:08:36;;;;;;;2.33;0.73;;;;;;;;;;5031276;28;20797;-53
2022/09/09 15:11:08;;;;;;;1.30;0.80;;;;;;;;;;5033294;28;20214;-54
2022/09/09 15:13:36;;;;;;;1.05;0.80;;;;;;;;;;5032624;28;20650;-53